createdAt,value
2023-04-02T00:01:05.447Z,5.80
2023-04-02T00:03:44.645Z,5.77
2023-04-02T00:06:37.701Z,5.75
2023-04-02T00:09:14.466Z,5.68
2023-04-02T00:11:48.856Z,5.65
2023-04-02T00:14:26.656Z,5.62
2023-04-02T00:16:57.262Z,5.57
2023-04-02T00:19:43.199Z,5.53
2023-04-02T00:22:20.508Z,5.46
2023-04-02T00:24:53.099Z,5.46
2023-04-02T00:27:20.979Z,5.44
2023-04-02T00:29:55.627Z,5.40
2023-04-02T00:32:31.635Z,5.36
2023-04-02T00:35:00.518Z,5.31
2023-04-02T00:37:31.766Z,5.28
2023-04-02T00:40:04.916Z,5.22
2023-04-02T00:42:34.200Z,5.19
2023-04-02T00:45:02.903Z,5.14
2023-04-02T00:47:40.220Z,5.17
2023-04-02T00:50:43.627Z,5.17
2023-04-02T00:53:28.456Z,5.17
2023-04-02T00:55:58.855Z,5.17
2023-04-02T00:58:36.788Z,5.18
2023-04-02T01:01:18.767Z,5.14
2023-04-02T01:04:00.267Z,5.10
2023-04-02T01:06:38.985Z,5.04
2023-04-02T01:09:24.206Z,4.99
2023-04-02T01:12:19.263Z,4.98
2023-04-02T01:14:57.625Z,4.93
2023-04-02T01:17:39.587Z,4.79
2023-04-02T01:20:31.289Z,4.78
2023-04-02T01:23:07.684Z,4.69
2023-04-02T01:26:00.725Z,4.60
2023-04-02T01:29:03.484Z,4.63
2023-04-02T01:31:32.857Z,4.65
2023-04-02T01:34:03.086Z,4.63
2023-04-02T01:37:13.987Z,4.65
2023-04-02T01:39:55.002Z,4.63
2023-04-02T01:42:41.355Z,4.60
2023-04-02T01:45:12.262Z,4.54
2023-04-02T01:47:41.052Z,4.53
2023-04-02T01:50:20.188Z,4.50
2023-04-02T01:52:53.829Z,4.51
2023-04-02T01:55:34.575Z,4.51
2023-04-02T01:58:03.423Z,4.45
2023-04-02T02:00:35.245Z,4.45
2023-04-02T02:03:03.911Z,4.43
2023-04-02T02:05:31.206Z,4.43
2023-04-02T02:07:59.843Z,4.46
2023-04-02T02:10:39.126Z,4.45
2023-04-02T02:13:06.413Z,4.46
2023-04-02T02:15:36.448Z,4.49
2023-04-02T02:18:06.272Z,4.47
2023-04-02T02:20:35.496Z,4.46
2023-04-02T02:23:04.759Z,4.47
2023-04-02T02:25:35.530Z,4.47
2023-04-02T02:28:33.308Z,4.46
2023-04-02T02:31:21.710Z,4.43
2023-04-02T02:34:00.562Z,4.45
2023-04-02T02:36:56.943Z,4.48
2023-04-02T02:39:45.438Z,4.46
2023-04-02T02:42:23.678Z,4.46
2023-04-02T02:44:54.111Z,4.49
2023-04-02T02:47:31.843Z,4.50
2023-04-02T02:50:04.461Z,4.53
2023-04-02T02:52:36.794Z,4.50
2023-04-02T02:55:11.154Z,4.54
2023-04-02T02:57:48.597Z,4.54
2023-04-02T03:00:17.567Z,4.50
2023-04-02T03:02:46.777Z,4.43
2023-04-02T03:05:22.549Z,4.42
2023-04-02T03:07:55.301Z,4.41
2023-04-02T03:10:49.080Z,4.38
2023-04-02T03:13:33.021Z,4.33
2023-04-02T03:16:20.769Z,4.31
2023-04-02T03:19:29.787Z,4.27
2023-04-02T03:22:38.518Z,4.21
2023-04-02T03:25:35.100Z,4.24
2023-04-02T03:28:08.080Z,4.19
2023-04-02T03:30:47.498Z,4.22
2023-04-02T03:33:33.946Z,4.22
2023-04-02T03:36:23.947Z,4.20
2023-04-02T03:39:35.836Z,4.21
2023-04-02T03:42:21.294Z,4.22
2023-04-02T03:44:56.529Z,4.23
2023-04-02T03:47:43.004Z,4.26
2023-04-02T03:50:38.584Z,4.27
2023-04-02T03:53:06.370Z,4.28
2023-04-02T03:55:38.882Z,4.27
2023-04-02T03:58:12.104Z,4.31
2023-04-02T04:01:08.387Z,4.24
2023-04-02T04:03:44.544Z,4.18
2023-04-02T04:06:31.477Z,4.18
2023-04-02T04:09:08.102Z,4.21
2023-04-02T04:11:44.285Z,4.23
2023-04-02T04:14:31.015Z,4.24
2023-04-02T04:17:25.934Z,4.24
2023-04-02T04:20:29.531Z,4.19
2023-04-02T04:23:37.206Z,4.23
2023-04-02T04:26:48.061Z,4.22
2023-04-02T04:29:52.198Z,4.16
2023-04-02T04:32:30.189Z,4.14
2023-04-02T04:35:16.633Z,4.17
2023-04-02T04:37:46.830Z,4.11
2023-04-02T04:40:24.915Z,4.14
2023-04-02T04:42:59.944Z,4.15
2023-04-02T04:45:47.536Z,4.21
2023-04-02T04:48:21.333Z,4.18
2023-04-02T04:51:01.370Z,4.19
2023-04-02T04:53:30.522Z,4.15
2023-04-02T04:56:16.446Z,4.16
2023-04-02T04:59:02.474Z,4.13
2023-04-02T05:01:48.362Z,4.12
2023-04-02T05:04:24.862Z,4.08
2023-04-02T05:07:14.224Z,4.07
2023-04-02T05:10:16.235Z,4.10
2023-04-02T05:13:04.859Z,4.11
2023-04-02T05:16:25.675Z,4.18
2023-04-02T05:19:07.832Z,4.12
2023-04-02T05:21:56.321Z,4.07
2023-04-02T05:25:08.178Z,4.07
2023-04-02T05:28:05.671Z,4.10
2023-04-02T05:30:54.484Z,4.11
2023-04-02T05:33:29.061Z,4.16
2023-04-02T05:36:10.572Z,4.19
2023-04-02T05:38:45.179Z,4.20
2023-04-02T05:41:28.516Z,4.23
2023-04-02T05:44:24.351Z,4.25
2023-04-02T05:47:03.390Z,4.24
2023-04-02T05:49:39.334Z,4.22
2023-04-02T05:52:14.442Z,4.26
2023-04-02T05:54:53.741Z,4.33
2023-04-02T05:57:42.691Z,4.37
2023-04-02T06:00:24.694Z,4.43
2023-04-02T06:03:04.290Z,4.49
2023-04-02T06:05:43.700Z,4.56
2023-04-02T06:08:31.289Z,4.61
2023-04-02T06:11:30.313Z,4.63
2023-04-02T06:13:58.212Z,4.63
2023-04-02T06:16:30.759Z,4.69
2023-04-02T06:18:58.843Z,4.75
2023-04-02T06:21:26.794Z,4.81
2023-04-02T06:24:05.048Z,4.91
2023-04-02T06:27:02.558Z,4.98
2023-04-02T06:29:44.698Z,5.09
2023-04-02T06:32:12.884Z,5.17
2023-04-02T06:34:42.900Z,5.25
2023-04-02T06:37:36.265Z,5.32
2023-04-02T06:40:07.072Z,5.36
2023-04-02T06:42:42.461Z,5.42
2023-04-02T06:45:25.471Z,5.45
2023-04-02T06:47:57.263Z,5.50
2023-04-02T06:50:37.255Z,5.57
2023-04-02T06:53:09.415Z,5.62
2023-04-02T06:56:03.113Z,5.72
2023-04-02T06:58:30.385Z,5.78
2023-04-02T07:00:57.759Z,5.85
2023-04-02T07:03:32.069Z,5.96
2023-04-02T07:06:02.686Z,6.06
2023-04-02T07:08:29.936Z,6.17
2023-04-02T07:10:57.149Z,6.28
2023-04-02T07:13:25.266Z,6.41
2023-04-02T07:15:55.469Z,6.52
2023-04-02T07:18:32.858Z,6.65
2023-04-02T07:21:00.510Z,6.74
2023-04-02T07:23:27.894Z,6.86
2023-04-02T07:25:56.895Z,6.96
2023-04-02T07:28:25.385Z,7.04
2023-04-02T07:30:53.192Z,7.14
2023-04-02T07:33:24.812Z,7.21
2023-04-02T07:35:54.321Z,7.30
2023-04-02T07:38:21.521Z,7.36
2023-04-02T07:40:48.885Z,7.42
2023-04-02T07:43:16.455Z,7.51
2023-04-02T07:45:43.606Z,7.54
2023-04-02T07:48:14.199Z,7.59
2023-04-02T07:50:41.828Z,7.64
2023-04-02T07:53:35.740Z,7.74
2023-04-02T07:56:05.208Z,7.82
2023-04-02T07:58:33.270Z,7.93
2023-04-02T08:01:01.837Z,7.93
2023-04-02T08:03:29.357Z,8.03
2023-04-02T08:05:58.742Z,8.18
2023-04-02T08:08:26.263Z,8.28
2023-04-02T08:10:53.436Z,8.33
2023-04-02T08:13:20.626Z,8.42
2023-04-02T08:15:47.789Z,8.45
2023-04-02T08:18:15.188Z,8.49
2023-04-02T08:20:42.465Z,8.60
2023-04-02T08:23:19.466Z,8.66
2023-04-02T08:25:46.628Z,8.80
2023-04-02T08:28:14.560Z,8.87
2023-04-02T08:30:42.295Z,8.96
2023-04-02T08:33:09.840Z,9.06
2023-04-02T08:35:37.317Z,9.06
2023-04-02T08:38:05.019Z,9.18
2023-04-02T08:40:43.523Z,9.31
2023-04-02T08:43:37.730Z,9.42
2023-04-02T08:46:25.940Z,9.48
2023-04-02T08:49:02.416Z,9.52
2023-04-02T08:51:35.972Z,9.57
2023-04-02T08:54:28.195Z,9.49
2023-04-02T08:57:30.992Z,9.56
2023-04-02T09:00:26.745Z,9.62
2023-04-02T09:03:08.438Z,9.69
2023-04-02T09:05:42.581Z,9.77
2023-04-02T09:08:25.167Z,9.88
2023-04-02T09:11:19.349Z,9.99
2023-04-02T09:13:54.616Z,10.11
2023-04-02T09:16:42.698Z,10.26
2023-04-02T09:19:37.872Z,10.32
2023-04-02T09:22:23.198Z,10.45
2023-04-02T09:24:59.378Z,10.55
2023-04-02T09:27:36.060Z,10.69
2023-04-02T09:30:31.189Z,10.76
2023-04-02T09:33:04.422Z,10.73
2023-04-02T09:35:34.872Z,10.72
2023-04-02T09:38:10.892Z,10.72
2023-04-02T09:41:02.511Z,10.74
2023-04-02T09:43:38.897Z,10.72
2023-04-02T09:46:25.321Z,10.73
2023-04-02T09:49:01.667Z,10.75
2023-04-02T09:51:33.605Z,10.75
2023-04-02T09:54:04.108Z,10.76
2023-04-02T09:56:36.656Z,10.81
2023-04-02T09:59:13.094Z,10.82
2023-04-02T10:01:53.812Z,10.85
2023-04-02T10:04:48.423Z,10.82
2023-04-02T10:07:37.825Z,10.84
2023-04-02T10:10:43.337Z,10.87
2023-04-02T10:13:28.822Z,10.94
2023-04-02T10:16:05.995Z,11.03
2023-04-02T10:18:50.829Z,11.07
2023-04-02T10:21:27.012Z,11.16
2023-04-02T10:23:56.085Z,11.16
2023-04-02T10:26:35.122Z,11.20
2023-04-02T10:29:26.030Z,11.26
2023-04-02T10:32:30.180Z,11.34
2023-04-02T10:36:08.016Z,11.42
2023-04-02T10:38:57.129Z,11.54
2023-04-02T10:41:54.160Z,11.58
2023-04-02T10:44:38.719Z,11.61
2023-04-02T10:47:27.111Z,11.66
2023-04-02T10:50:28.192Z,11.66
2023-04-02T10:53:20.693Z,11.65
2023-04-02T10:56:07.595Z,11.69
2023-04-02T10:58:51.217Z,11.68
2023-04-02T11:01:26.353Z,11.66
2023-04-02T11:04:08.331Z,11.68
2023-04-02T11:07:13.071Z,11.73
2023-04-02T11:09:48.399Z,11.71
2023-04-02T11:12:28.092Z,11.87
2023-04-02T11:14:56.461Z,12.36
2023-04-02T11:17:25.103Z,12.59
2023-04-02T11:19:52.354Z,12.72
2023-04-02T11:22:26.260Z,12.67
2023-04-02T11:24:57.506Z,12.54
2023-04-02T11:27:32.839Z,12.44
2023-04-02T11:30:24.523Z,12.32
2023-04-02T11:32:52.426Z,12.06
2023-04-02T11:35:30.624Z,12.02
2023-04-02T11:38:02.435Z,11.98
2023-04-02T11:40:53.401Z,11.93
2023-04-02T11:43:36.132Z,11.84
2023-04-02T11:46:29.334Z,11.79
2023-04-02T11:49:36.650Z,11.78
2023-04-02T11:52:18.743Z,11.75
2023-04-02T11:54:56.711Z,11.79
2023-04-02T11:58:06.112Z,11.81
2023-04-02T12:01:14.250Z,11.92
2023-04-02T12:04:08.176Z,12.02
2023-04-02T12:06:44.418Z,12.11
2023-04-02T12:09:26.861Z,12.20
2023-04-02T12:11:59.931Z,12.31
2023-04-02T12:14:42.036Z,12.36
2023-04-02T12:17:35.413Z,12.36
2023-04-02T12:20:07.832Z,12.32
2023-04-02T12:22:46.058Z,12.41
2023-04-02T12:25:35.008Z,12.56
2023-04-02T12:28:11.201Z,12.67
2023-04-02T12:30:39.532Z,12.80
2023-04-02T12:33:41.591Z,12.90
2023-04-02T12:36:23.003Z,12.90
2023-04-02T12:38:57.926Z,12.90
2023-04-02T12:41:27.657Z,12.86
2023-04-02T12:44:09.580Z,12.84
2023-04-02T12:46:40.680Z,12.76
2023-04-02T12:49:30.248Z,12.54
2023-04-02T12:51:59.184Z,12.43
2023-04-02T12:54:26.517Z,12.46
2023-04-02T12:56:54.799Z,12.45
2023-04-02T12:59:35.199Z,12.43
2023-04-02T13:02:28.431Z,12.41
2023-04-02T13:05:01.569Z,12.41
2023-04-02T13:07:33.447Z,12.41
2023-04-02T13:10:05.601Z,12.36
2023-04-02T13:12:36.825Z,12.44
2023-04-02T13:15:33.252Z,12.78
2023-04-02T13:18:12.794Z,13.42
2023-04-02T13:20:43.799Z,13.94
2023-04-02T13:23:31.103Z,14.42
2023-04-02T13:26:01.231Z,14.75
2023-04-02T13:28:29.636Z,14.80
2023-04-02T13:30:57.009Z,14.74
2023-04-02T13:33:24.208Z,14.60
2023-04-02T13:35:51.485Z,14.49
2023-04-02T13:38:18.952Z,14.37
2023-04-02T13:40:46.659Z,14.23
2023-04-02T13:43:21.281Z,14.17
2023-04-02T13:45:54.969Z,14.00
2023-04-02T13:48:22.147Z,13.94
2023-04-02T13:50:49.599Z,13.98
2023-04-02T13:53:30.520Z,13.78
2023-04-02T13:58:25.193Z,13.76
2023-04-02T14:00:52.516Z,13.68
2023-04-02T14:03:25.838Z,13.53
2023-04-02T14:06:12.286Z,13.44
2023-04-02T14:08:58.286Z,13.24
2023-04-02T14:12:20.341Z,13.17
2023-04-02T14:15:23.120Z,13.14
2023-04-02T14:18:21.922Z,13.13
2023-04-02T14:21:42.998Z,13.12
2023-04-02T14:24:27.223Z,13.09
2023-04-02T14:27:24.697Z,13.13
2023-04-02T14:30:38.069Z,13.21
2023-04-02T14:33:43.319Z,13.66
2023-04-02T14:36:25.113Z,14.24
2023-04-02T14:39:17.535Z,14.61
2023-04-02T14:42:04.432Z,14.91
2023-04-02T14:44:48.914Z,14.90
2023-04-02T14:47:29.224Z,14.77
2023-04-02T14:50:11.291Z,14.51
2023-04-02T14:52:44.808Z,14.20
2023-04-02T14:55:37.110Z,14.02
2023-04-02T14:58:15.443Z,13.91
2023-04-02T15:01:07.621Z,13.81
2023-04-02T15:04:02.192Z,13.75
2023-04-02T15:06:45.901Z,13.71
2023-04-02T15:09:45.098Z,13.76
2023-04-02T15:12:32.585Z,14.19
2023-04-02T15:15:24.310Z,14.59
2023-04-02T15:17:54.449Z,14.68
2023-04-02T15:20:21.969Z,14.41
2023-04-02T15:23:19.908Z,14.34
2023-04-02T15:26:00.669Z,14.21
2023-04-02T15:28:43.795Z,14.11
2023-04-02T15:31:15.125Z,14.04
2023-04-02T15:34:01.897Z,13.81
2023-04-02T15:37:00.810Z,13.53
2023-04-02T15:40:21.632Z,13.52
2023-04-02T15:43:37.018Z,13.49
2023-04-02T15:47:01.434Z,13.31
2023-04-02T15:49:49.877Z,13.12
2023-04-02T15:52:36.995Z,13.08
2023-04-02T15:55:29.058Z,13.09
2023-04-02T15:58:30.014Z,13.51
2023-04-02T16:01:16.766Z,13.91
2023-04-02T16:04:41.032Z,14.39
2023-04-02T16:07:41.181Z,14.39
2023-04-02T16:10:40.889Z,14.37
2023-04-02T16:13:35.704Z,14.32
2023-04-02T16:16:32.616Z,14.27
2023-04-02T16:19:16.157Z,14.16
2023-04-02T16:21:57.113Z,13.91
2023-04-02T16:24:24.707Z,13.94
2023-04-02T16:27:30.903Z,14.03
2023-04-02T16:30:35.523Z,13.85
2023-04-02T16:33:17.130Z,13.76
2023-04-02T16:36:17.797Z,13.52
2023-04-02T16:39:42.751Z,13.19
2023-04-02T16:42:47.242Z,12.98
2023-04-02T16:45:51.952Z,12.79
2023-04-02T16:48:50.109Z,12.63
2023-04-02T16:51:32.363Z,12.46
2023-04-02T16:54:42.809Z,12.19
2023-04-02T16:57:10.185Z,11.86
2023-04-02T17:00:12.701Z,11.80
2023-04-02T17:03:25.655Z,11.75
2023-04-02T17:06:29.372Z,11.69
2023-04-02T17:09:30.951Z,11.60
2023-04-02T17:12:27.942Z,11.51
2023-04-02T17:15:05.733Z,11.42
2023-04-02T17:17:35.158Z,11.39
2023-04-02T17:20:06.877Z,11.35
2023-04-02T17:22:36.676Z,11.31
2023-04-02T17:25:07.149Z,11.26
2023-04-02T17:27:45.129Z,11.15
2023-04-02T17:30:45.223Z,11.02
2023-04-02T17:33:14.986Z,10.96
2023-04-02T17:36:00.395Z,10.88
2023-04-02T17:38:56.687Z,10.80
2023-04-02T17:41:51.497Z,10.67
2023-04-02T17:44:39.811Z,10.50
2023-04-02T17:48:14.588Z,10.38
2023-04-02T17:51:00.145Z,10.29
2023-04-02T17:54:14.861Z,10.20
2023-04-02T17:56:58.150Z,10.07
2023-04-02T17:59:41.490Z,9.97
2023-04-02T18:02:35.215Z,9.90
2023-04-02T18:05:28.977Z,9.79
2023-04-02T18:08:12.454Z,9.66
2023-04-02T18:11:09.556Z,9.59
2023-04-02T18:14:02.398Z,9.54
2023-04-02T18:16:57.938Z,9.45
2023-04-02T18:20:03.127Z,9.29
2023-04-02T18:22:47.857Z,9.20
2023-04-02T18:25:54.348Z,9.18
2023-04-02T18:28:49.225Z,9.13
2023-04-02T18:31:43.600Z,8.99
2023-04-02T18:34:47.911Z,8.92
2023-04-02T18:37:36.831Z,8.92
2023-04-02T18:40:34.081Z,8.90
2023-04-02T18:43:29.130Z,8.87
2023-04-02T18:46:18.198Z,8.85
2023-04-02T18:49:20.314Z,8.81
2023-04-02T18:51:58.776Z,8.75
2023-04-02T18:54:39.495Z,8.77
2023-04-02T18:57:23.835Z,8.79
2023-04-02T19:00:19.742Z,8.76
2023-04-02T19:03:05.522Z,8.71
2023-04-02T19:05:36.209Z,8.69
2023-04-02T19:08:41.747Z,8.60
2023-04-02T19:11:19.218Z,8.53
2023-04-02T19:13:46.476Z,8.51
2023-04-02T19:16:23.386Z,8.53
2023-04-02T19:19:26.345Z,8.52
2023-04-02T19:22:22.767Z,8.51
2023-04-02T19:25:05.234Z,8.50
2023-04-02T19:28:08.241Z,8.49
2023-04-02T19:31:09.376Z,8.44
2023-04-02T19:34:24.986Z,8.43
2023-04-02T19:36:58.842Z,8.41
2023-04-02T19:39:45.315Z,8.43
2023-04-02T19:42:21.798Z,8.43
2023-04-02T19:44:52.757Z,8.40
2023-04-02T19:47:21.212Z,8.40
2023-04-02T19:49:48.859Z,8.36
2023-04-02T19:52:16.456Z,8.35
2023-04-02T19:54:44.074Z,8.35
2023-04-02T19:57:16.104Z,8.29
2023-04-02T19:59:43.669Z,8.26
2023-04-02T20:02:11.444Z,8.24
2023-04-02T20:04:38.728Z,8.20
2023-04-02T20:07:06.612Z,8.14
2023-04-02T20:09:34.189Z,8.10
2023-04-02T20:12:01.376Z,8.09
2023-04-02T20:14:28.878Z,8.05
2023-04-02T20:16:56.125Z,8.00
2023-04-02T20:19:23.506Z,7.96
2023-04-02T20:21:51.190Z,7.91
2023-04-02T20:24:18.858Z,7.89
2023-04-02T20:26:45.987Z,7.87
2023-04-02T20:29:13.418Z,7.85
2023-04-02T20:31:40.523Z,7.87
2023-04-02T20:34:09.914Z,7.87
2023-04-02T20:36:37.342Z,7.81
2023-04-02T20:39:04.590Z,7.75
2023-04-02T20:41:31.748Z,7.71
2023-04-02T20:43:58.969Z,7.65
2023-04-02T20:46:26.130Z,7.57
2023-04-02T20:48:53.265Z,7.51
2023-04-02T20:51:20.495Z,7.48
2023-04-02T20:53:47.831Z,7.46
2023-04-02T20:56:17.876Z,7.44
2023-04-02T20:58:45.270Z,7.38
2023-04-02T21:01:25.365Z,7.34
2023-04-02T21:03:59.773Z,7.30
2023-04-02T21:06:31.778Z,7.29
2023-04-02T21:09:00.792Z,7.20
2023-04-02T21:11:28.210Z,7.08
2023-04-02T21:13:55.465Z,7.02
2023-04-02T21:16:26.582Z,7.01
2023-04-02T21:18:54.629Z,7.02
2023-04-02T21:21:23.418Z,7.05
2023-04-02T21:23:59.639Z,6.96
2023-04-02T21:26:31.881Z,6.90
2023-04-02T21:29:00.597Z,6.86
2023-04-02T21:31:33.475Z,6.85
2023-04-02T21:34:00.941Z,6.77
2023-04-02T21:36:32.612Z,6.67
2023-04-02T21:39:10.005Z,6.64
2023-04-02T21:41:42.967Z,6.58
2023-04-02T21:44:15.395Z,6.52
2023-04-02T21:46:43.613Z,6.48
2023-04-02T21:49:14.748Z,6.41
2023-04-02T21:51:43.930Z,6.37
2023-04-02T21:54:11.573Z,6.27
2023-04-02T21:56:42.899Z,6.23
2023-04-02T21:59:12.362Z,6.18
2023-04-02T22:01:43.663Z,6.15
2023-04-02T22:04:18.392Z,6.16
2023-04-02T22:06:47.038Z,6.12
2023-04-02T22:09:18.759Z,6.07
2023-04-02T22:11:52.955Z,6.09
2023-04-02T22:14:21.404Z,6.05
2023-04-02T22:16:48.900Z,6.01
2023-04-02T22:19:17.270Z,5.92
2023-04-02T22:21:44.858Z,5.90
2023-04-02T22:24:15.669Z,5.87
2023-04-02T22:26:43.685Z,5.83
2023-04-02T22:29:11.812Z,5.78
2023-04-02T22:31:39.132Z,5.76
2023-04-02T22:34:07.062Z,5.74
2023-04-02T22:36:35.170Z,5.76
2023-04-02T22:39:04.599Z,5.74
2023-04-02T22:41:32.409Z,5.72
2023-04-02T22:44:01.361Z,5.62
2023-04-02T22:46:30.817Z,5.61
2023-04-02T22:48:58.686Z,5.57
2023-04-02T22:51:27.437Z,5.58
2023-04-02T22:53:56.727Z,5.51
2023-04-02T22:56:29.716Z,5.46
2023-04-02T22:58:56.905Z,5.43
2023-04-02T23:01:33.700Z,5.43
2023-04-02T23:04:01.174Z,5.43
2023-04-02T23:06:29.533Z,5.43
2023-04-02T23:08:57.007Z,5.39
2023-04-02T23:11:27.658Z,5.42
2023-04-02T23:13:58.025Z,5.40
2023-04-02T23:16:28.950Z,5.37
2023-04-02T23:18:57.379Z,5.32
2023-04-02T23:21:26.065Z,5.34
2023-04-02T23:23:54.110Z,5.36
2023-04-02T23:26:27.320Z,5.35
2023-04-02T23:28:54.802Z,5.31
2023-04-02T23:31:24.293Z,5.35
2023-04-02T23:33:52.691Z,5.35
2023-04-02T23:36:27.645Z,5.31
2023-04-02T23:38:59.439Z,5.28
2023-04-02T23:41:27.791Z,5.25
2023-04-02T23:43:56.775Z,5.28
2023-04-02T23:46:25.687Z,5.26
2023-04-02T23:48:54.005Z,5.22
2023-04-02T23:51:21.949Z,5.22
2023-04-02T23:53:51.640Z,5.23
2023-04-02T23:56:20.083Z,5.25
2023-04-02T23:58:48.031Z,5.27
